createdAt,value
2023-05-15T00:02:40.544Z,8.05
2023-05-15T00:05:26.341Z,7.97
2023-05-15T00:08:11.754Z,8.10
2023-05-15T00:13:45.162Z,8.07
2023-05-15T00:16:30.371Z,9.05
2023-05-15T00:19:16.509Z,7.90
2023-05-15T00:22:01.989Z,8.10
2023-05-15T00:24:47.111Z,8.40
2023-05-15T00:27:32.480Z,7.85
2023-05-15T00:30:17.855Z,8.55
2023-05-15T00:33:03.109Z,8.85
2023-05-15T00:35:48.321Z,8.85
2023-05-15T00:38:33.854Z,8.35
2023-05-15T00:41:21.573Z,8.18
2023-05-15T00:44:09.603Z,8.15
2023-05-15T00:46:57.481Z,8.77
2023-05-15T00:49:43.149Z,8.27
2023-05-15T00:52:29.665Z,8.38
2023-05-15T00:55:14.953Z,8.02
2023-05-15T00:58:01.410Z,8.30
2023-05-15T01:00:49.741Z,8.20
2023-05-15T01:03:35.841Z,9.23
2023-05-15T01:06:21.110Z,9.15
2023-05-15T01:09:08.426Z,8.27
2023-05-15T01:11:55.059Z,8.32
2023-05-15T01:14:40.494Z,7.68
2023-05-15T01:17:25.907Z,7.78
2023-05-15T01:20:15.411Z,7.93
2023-05-15T01:23:18.149Z,7.63
2023-05-15T01:26:16.594Z,8.85
2023-05-15T01:29:12.587Z,8.15
2023-05-15T01:32:04.282Z,9.32
2023-05-15T01:35:08.413Z,8.70
2023-05-15T01:38:04.296Z,8.63
2023-05-15T01:40:56.716Z,7.55
2023-05-15T01:43:45.483Z,8.85
2023-05-15T01:46:31.674Z,8.77
2023-05-15T01:49:19.675Z,8.35
2023-05-15T01:52:18.812Z,8.23
2023-05-15T01:55:08.525Z,8.75
2023-05-15T02:00:42.443Z,8.75
2023-05-15T02:03:27.965Z,8.50
2023-05-15T02:06:13.956Z,7.90
2023-05-15T02:09:02.353Z,8.35
2023-05-15T02:14:35.203Z,8.65
2023-05-15T02:17:22.137Z,8.93
2023-05-15T02:20:08.922Z,8.63
2023-05-15T02:22:56.309Z,9.75
2023-05-15T02:26:12.331Z,10.60
2023-05-15T02:29:21.170Z,9.90
2023-05-15T02:32:48.066Z,10.05
2023-05-15T02:35:52.829Z,8.63
2023-05-15T02:38:44.829Z,9.38
2023-05-15T02:41:33.812Z,9.23
2023-05-15T02:44:20.624Z,10.30
2023-05-15T02:47:06.544Z,9.80
2023-05-15T02:49:52.413Z,9.85
2023-05-15T02:52:37.710Z,9.38
2023-05-15T02:55:23.081Z,10.27
2023-05-15T02:58:09.354Z,10.38
2023-05-15T03:00:54.760Z,9.45
2023-05-15T03:03:40.303Z,10.20
2023-05-15T03:06:25.724Z,9.38
2023-05-15T03:09:10.913Z,9.25
2023-05-15T03:11:56.330Z,9.80
2023-05-15T03:14:41.716Z,10.02
2023-05-15T03:17:27.467Z,10.38
2023-05-15T03:20:14.421Z,10.23
2023-05-15T03:22:59.733Z,9.77
2023-05-15T03:25:45.262Z,9.57
2023-05-15T03:28:30.521Z,10.80
2023-05-15T03:31:15.803Z,9.93
2023-05-15T03:34:01.179Z,11.07
2023-05-15T03:36:46.725Z,10.80
2023-05-15T03:39:31.969Z,10.70
2023-05-15T03:42:23.238Z,10.35
2023-05-15T03:45:08.920Z,9.80
2023-05-15T03:47:54.214Z,11.10
2023-05-15T03:50:40.189Z,10.80
2023-05-15T03:53:25.395Z,10.90
2023-05-15T03:56:11.595Z,11.10
2023-05-15T03:58:56.933Z,11.35
2023-05-15T04:01:59.430Z,10.23
2023-05-15T04:04:47.562Z,9.88
2023-05-15T04:07:34.692Z,11.52
2023-05-15T04:10:20.040Z,11.60
2023-05-15T04:13:05.049Z,12.15
2023-05-15T04:15:50.715Z,12.88
2023-05-15T04:18:35.782Z,13.38
2023-05-15T04:21:21.049Z,14.40
2023-05-15T04:24:07.826Z,14.10
2023-05-15T04:26:53.161Z,14.23
2023-05-15T04:29:38.594Z,14.43
2023-05-15T04:32:23.867Z,14.07
2023-05-15T04:35:11.951Z,14.70
2023-05-15T04:37:57.446Z,14.95
2023-05-15T04:40:42.487Z,14.70
2023-05-15T04:43:27.967Z,14.88
2023-05-15T04:46:13.454Z,14.27
2023-05-15T04:48:58.684Z,15.50
2023-05-15T04:51:44.324Z,14.75
2023-05-15T04:54:29.618Z,13.55
2023-05-15T04:57:15.103Z,14.10
2023-05-15T05:00:00.633Z,13.82
2023-05-15T05:02:46.077Z,14.45
2023-05-15T05:05:31.488Z,13.80
2023-05-15T05:08:16.776Z,12.70
2023-05-15T05:11:03.130Z,12.70
2023-05-15T05:13:49.297Z,13.20
2023-05-15T05:16:35.111Z,12.32
2023-05-15T05:19:20.351Z,12.55
2023-05-15T05:22:06.161Z,11.15
2023-05-15T05:24:51.618Z,11.68
2023-05-15T05:27:36.832Z,11.30
2023-05-15T05:30:22.344Z,10.00
2023-05-15T05:33:07.789Z,9.45
2023-05-15T05:35:52.901Z,9.35
2023-05-15T05:38:40.525Z,9.27
2023-05-15T05:41:25.860Z,10.23
2023-05-15T05:44:11.320Z,9.40
2023-05-15T05:46:56.855Z,9.07
2023-05-15T05:49:42.412Z,8.60
2023-05-15T05:52:29.027Z,8.25
2023-05-15T05:55:14.585Z,8.07
2023-05-15T05:58:00.142Z,8.25
2023-05-15T06:00:45.463Z,8.82
2023-05-15T06:03:31.268Z,8.30
2023-05-15T06:06:16.520Z,8.55
2023-05-15T06:09:02.457Z,7.13
2023-05-15T06:11:47.774Z,8.05
2023-05-15T06:14:33.118Z,8.50
2023-05-15T06:17:18.323Z,9.43
2023-05-15T06:20:08.436Z,8.27
2023-05-15T06:22:53.989Z,8.23
2023-05-15T06:25:39.258Z,8.65
2023-05-15T06:28:24.418Z,8.27
2023-05-15T06:31:10.322Z,8.35
2023-05-15T06:33:55.731Z,8.20
2023-05-15T06:36:41.346Z,8.60
2023-05-15T06:39:29.453Z,8.43
2023-05-15T06:42:15.119Z,8.32
2023-05-15T06:45:00.628Z,8.30
2023-05-15T06:47:46.227Z,9.52
2023-05-15T06:50:31.562Z,9.00
2023-05-15T06:53:17.806Z,8.70
2023-05-15T06:56:02.873Z,9.43
2023-05-15T06:58:48.092Z,10.10
2023-05-15T07:01:33.679Z,9.68
2023-05-15T07:04:19.009Z,7.93
2023-05-15T07:07:04.533Z,9.32
2023-05-15T07:09:50.390Z,8.63
2023-05-15T07:12:35.662Z,8.27
2023-05-15T07:15:21.182Z,7.57
2023-05-15T07:18:06.755Z,7.88
2023-05-15T07:20:52.467Z,7.43
2023-05-15T07:23:37.954Z,7.70
2023-05-15T07:26:34.287Z,7.80
2023-05-15T07:29:21.825Z,7.65
2023-05-15T07:32:07.612Z,7.45
2023-05-15T07:34:52.572Z,6.65
2023-05-15T07:37:38.723Z,6.85
2023-05-15T07:40:24.032Z,6.60
2023-05-15T07:43:09.480Z,5.95
2023-05-15T07:45:54.717Z,6.93
2023-05-15T07:48:39.851Z,5.95
2023-05-15T07:51:25.496Z,6.68
2023-05-15T07:54:10.494Z,6.70
2023-05-15T07:56:56.007Z,6.57
2023-05-15T07:59:41.053Z,5.50
2023-05-15T08:02:26.621Z,5.30
2023-05-15T08:05:12.047Z,5.97
2023-05-15T08:07:57.449Z,6.32
2023-05-15T08:10:42.914Z,6.47
2023-05-15T08:13:28.781Z,6.40
2023-05-15T08:16:14.218Z,5.57
2023-05-15T08:19:03.607Z,5.82
2023-05-15T08:21:49.285Z,5.45
2023-05-15T08:24:34.520Z,6.10
2023-05-15T08:27:20.443Z,5.95
2023-05-15T08:30:06.648Z,4.93
2023-05-15T08:32:51.749Z,6.05
2023-05-15T08:35:37.016Z,5.45
2023-05-15T08:38:22.565Z,4.88
2023-05-15T08:41:18.204Z,5.00
2023-05-15T08:44:09.576Z,5.43
2023-05-15T08:46:56.014Z,5.22
2023-05-15T08:49:51.487Z,6.05
2023-05-15T08:52:48.801Z,5.43
2023-05-15T08:55:34.121Z,4.57
2023-05-15T08:58:25.681Z,5.05
2023-05-15T09:01:13.005Z,6.10
2023-05-15T09:03:58.321Z,6.13
2023-05-15T09:06:44.477Z,5.60
2023-05-15T09:09:32.567Z,5.80
2023-05-15T09:12:19.023Z,5.53
2023-05-15T09:15:12.535Z,5.82
2023-05-15T09:17:58.184Z,4.93
2023-05-15T09:20:43.644Z,5.32
2023-05-15T09:23:28.831Z,6.05
2023-05-15T09:26:16.351Z,5.40
2023-05-15T09:29:04.778Z,5.90
2023-05-15T09:31:50.009Z,5.20
2023-05-15T09:34:37.979Z,5.30
2023-05-15T09:37:32.316Z,6.07
2023-05-15T09:40:20.784Z,5.00
2023-05-15T09:43:09.493Z,4.57
2023-05-15T09:45:57.291Z,4.70
2023-05-15T09:48:42.462Z,4.72
2023-05-15T09:51:28.441Z,5.03
2023-05-15T09:54:18.576Z,5.45
2023-05-15T09:57:12.257Z,5.22
2023-05-15T10:00:09.891Z,5.93
2023-05-15T10:02:58.945Z,4.80
2023-05-15T10:05:44.488Z,4.65
2023-05-15T10:08:34.429Z,5.53
2023-05-15T10:14:10.779Z,5.43
2023-05-15T10:16:57.246Z,5.32
2023-05-15T10:19:57.191Z,5.28
2023-05-15T10:22:46.755Z,5.45
2023-05-15T10:25:42.457Z,5.73
2023-05-15T10:28:29.241Z,5.40
2023-05-15T10:31:14.777Z,5.13
2023-05-15T10:34:01.441Z,5.00
2023-05-15T10:36:49.809Z,5.10
2023-05-15T10:39:38.095Z,4.20
2023-05-15T10:42:27.585Z,4.13
2023-05-15T10:45:13.027Z,4.72
2023-05-15T10:47:59.796Z,4.72
2023-05-15T10:50:49.510Z,4.35
2023-05-15T10:53:35.627Z,4.68
2023-05-15T10:56:21.371Z,4.70
2023-05-15T10:59:08.502Z,3.70
2023-05-15T11:02:01.630Z,4.07
2023-05-15T11:04:47.524Z,4.47
2023-05-15T11:07:35.829Z,4.13
2023-05-15T11:10:30.153Z,2.92
2023-05-15T11:13:15.581Z,3.80
2023-05-15T11:16:00.712Z,4.20
2023-05-15T11:18:47.792Z,3.90
2023-05-15T11:21:33.163Z,3.60
2023-05-15T11:24:18.395Z,4.05
2023-05-15T11:27:07.056Z,3.33
2023-05-15T11:30:08.007Z,3.95
2023-05-15T11:33:00.468Z,4.05
2023-05-15T11:35:47.631Z,3.55
2023-05-15T11:38:40.038Z,4.10
2023-05-15T11:41:34.200Z,3.78
2023-05-15T11:44:21.716Z,4.50
2023-05-15T11:47:10.446Z,3.78
2023-05-15T11:49:57.673Z,3.13
2023-05-15T11:52:43.378Z,3.70
2023-05-15T11:55:31.597Z,4.13
2023-05-15T11:58:18.909Z,3.53
2023-05-15T12:01:04.461Z,3.00
2023-05-15T12:03:50.297Z,3.20
2023-05-15T12:06:35.694Z,3.25
2023-05-15T12:09:22.526Z,3.30
2023-05-15T12:12:12.988Z,3.00
2023-05-15T12:15:01.203Z,3.05
2023-05-15T12:17:46.831Z,3.20
2023-05-15T12:20:33.891Z,3.83
2023-05-15T12:23:25.199Z,3.00
2023-05-15T12:26:10.720Z,3.42
2023-05-15T12:28:56.825Z,3.65
2023-05-15T12:31:42.536Z,3.08
2023-05-15T12:34:27.905Z,3.10
2023-05-15T12:37:13.951Z,2.80
2023-05-15T12:40:01.388Z,1.60
2023-05-15T12:42:53.398Z,2.58
2023-05-15T12:45:39.866Z,2.67
2023-05-15T12:48:32.619Z,2.35
2023-05-15T12:51:18.276Z,2.40
2023-05-15T12:54:03.645Z,2.85
2023-05-15T12:56:49.697Z,2.63
2023-05-15T12:59:36.151Z,2.63
2023-05-15T13:02:23.295Z,2.53
2023-05-15T13:05:08.911Z,3.38
2023-05-15T13:07:54.457Z,3.20
2023-05-15T13:10:40.203Z,2.70
2023-05-15T13:13:47.249Z,3.20
2023-05-15T13:16:33.051Z,2.78
2023-05-15T13:19:18.829Z,2.47
2023-05-15T13:22:04.320Z,2.60
2023-05-15T13:24:52.050Z,3.20
2023-05-15T13:27:37.482Z,3.05
2023-05-15T13:30:22.859Z,3.60
2023-05-15T13:33:09.884Z,3.20
2023-05-15T13:35:57.247Z,2.75
2023-05-15T13:38:42.399Z,2.85
2023-05-15T13:41:27.720Z,2.40
2023-05-15T13:44:13.024Z,1.80
2023-05-15T13:46:59.719Z,2.60
2023-05-15T13:49:45.579Z,2.40
2023-05-15T13:52:31.283Z,2.55
2023-05-15T13:55:16.583Z,2.03
2023-05-15T13:58:01.727Z,1.90
2023-05-15T14:00:48.346Z,1.70
2023-05-15T14:03:34.484Z,1.73
2023-05-15T14:06:20.060Z,2.42
2023-05-15T14:09:07.312Z,1.73
2023-05-15T14:11:52.720Z,2.40
2023-05-15T14:14:38.390Z,2.00
2023-05-15T14:17:24.460Z,2.80
2023-05-15T14:20:11.486Z,2.15
2023-05-15T14:22:56.771Z,2.63
2023-05-15T14:25:42.486Z,3.08
2023-05-15T14:28:27.904Z,2.20
2023-05-15T14:31:13.290Z,2.92
2023-05-15T14:33:58.784Z,2.50
2023-05-15T14:36:44.106Z,2.85
2023-05-15T14:39:29.311Z,2.60
2023-05-15T14:42:14.915Z,2.90
2023-05-15T14:45:00.286Z,2.70
2023-05-15T14:47:45.566Z,2.85
2023-05-15T14:50:31.161Z,2.47
2023-05-15T14:53:17.412Z,2.45
2023-05-15T14:56:03.875Z,2.53
2023-05-15T14:58:50.764Z,2.45
2023-05-15T15:01:36.073Z,2.63
2023-05-15T15:04:21.616Z,2.83
2023-05-15T15:07:11.027Z,1.77
2023-05-15T15:12:41.958Z,2.22
2023-05-15T15:15:27.808Z,2.25
2023-05-15T15:18:13.342Z,2.70
2023-05-15T15:20:58.494Z,2.58
2023-05-15T15:23:47.810Z,2.15
2023-05-15T15:26:33.086Z,2.40
2023-05-15T15:29:18.320Z,1.90
2023-05-15T15:32:04.005Z,1.98
2023-05-15T15:34:49.489Z,2.17
2023-05-15T15:37:37.416Z,2.15
2023-05-15T15:40:23.788Z,2.22
2023-05-15T15:43:09.998Z,2.22
2023-05-15T15:45:55.409Z,2.42
2023-05-15T15:48:40.883Z,2.33
2023-05-15T15:51:26.063Z,2.38
2023-05-15T15:54:11.709Z,2.42
2023-05-15T15:56:57.000Z,2.35
2023-05-15T15:59:43.013Z,2.00
2023-05-15T16:02:29.744Z,2.30
2023-05-15T16:05:15.483Z,2.17
2023-05-15T16:08:00.639Z,1.83
2023-05-15T16:10:46.376Z,1.77
2023-05-15T16:13:31.634Z,2.22
2023-05-15T16:16:16.927Z,2.08
2023-05-15T16:19:02.089Z,2.00
2023-05-15T16:21:48.196Z,2.40
2023-05-15T16:24:35.761Z,2.60
2023-05-15T16:27:21.178Z,2.85
2023-05-15T16:30:07.516Z,2.67
2023-05-15T16:32:52.839Z,2.83
2023-05-15T16:35:38.310Z,2.40
2023-05-15T16:38:24.681Z,2.40
2023-05-15T16:41:10.635Z,2.95
2023-05-15T16:43:59.369Z,2.35
2023-05-15T16:46:45.053Z,2.63
2023-05-15T16:49:31.456Z,2.88
2023-05-15T16:52:16.945Z,2.95
2023-05-15T16:55:03.414Z,2.60
2023-05-15T16:57:49.491Z,2.60
2023-05-15T17:00:35.016Z,3.08
2023-05-15T17:03:20.417Z,2.28
2023-05-15T17:06:06.821Z,3.00
2023-05-15T17:08:52.247Z,2.58
2023-05-15T17:11:37.567Z,2.45
2023-05-15T17:14:23.749Z,2.67
2023-05-15T17:17:08.929Z,2.60
2023-05-15T17:19:55.180Z,2.40
2023-05-15T17:22:40.450Z,3.03
2023-05-15T17:25:25.999Z,3.50
2023-05-15T17:28:11.589Z,2.60
2023-05-15T17:30:57.011Z,3.65
2023-05-15T17:33:42.562Z,3.45
2023-05-15T17:36:27.727Z,3.47
2023-05-15T17:39:13.117Z,3.33
2023-05-15T17:41:58.344Z,2.88
2023-05-15T17:44:43.869Z,3.10
2023-05-15T17:47:29.282Z,2.70
2023-05-15T17:50:14.662Z,2.97
2023-05-15T17:53:00.552Z,3.53
2023-05-15T17:55:46.353Z,3.17
2023-05-15T17:58:31.510Z,3.38
2023-05-15T18:01:17.204Z,2.90
2023-05-15T18:04:02.301Z,4.15
2023-05-15T18:06:47.567Z,3.90
2023-05-15T18:09:32.872Z,3.33
2023-05-15T18:12:18.017Z,3.83
2023-05-15T18:15:03.625Z,3.10
2023-05-15T18:17:49.755Z,3.53
2023-05-15T18:20:34.991Z,3.90
2023-05-15T18:23:20.620Z,3.97
2023-05-15T18:26:05.851Z,3.83
2023-05-15T18:28:51.291Z,3.30
2023-05-15T18:31:36.595Z,3.50
2023-05-15T18:34:22.198Z,3.50
2023-05-15T18:37:07.339Z,3.90
2023-05-15T18:39:56.445Z,3.75
2023-05-15T18:42:41.603Z,3.65
2023-05-15T18:45:27.297Z,3.33
2023-05-15T18:48:12.418Z,3.85
2023-05-15T18:50:58.056Z,4.03
2023-05-15T18:53:43.592Z,4.82
2023-05-15T18:56:28.970Z,5.03
2023-05-15T18:59:14.426Z,3.92
2023-05-15T19:01:59.990Z,4.97
2023-05-15T19:04:45.175Z,4.40
2023-05-15T19:07:30.710Z,4.57
2023-05-15T19:10:16.261Z,4.40
2023-05-15T19:13:01.578Z,4.22
2023-05-15T19:15:53.713Z,4.07
2023-05-15T19:18:39.330Z,4.05
2023-05-15T19:21:24.555Z,4.93
2023-05-15T19:24:09.706Z,5.07
2023-05-15T19:26:55.136Z,4.32
2023-05-15T19:29:42.768Z,3.65
2023-05-15T19:32:28.495Z,3.78
2023-05-15T19:35:13.931Z,3.50
2023-05-15T19:37:59.338Z,3.97
2023-05-15T19:40:47.747Z,4.10
2023-05-15T19:43:35.921Z,3.60
2023-05-15T19:46:21.517Z,4.00
2023-05-15T19:49:07.057Z,4.10
2023-05-15T19:51:52.789Z,3.70
2023-05-15T19:54:38.521Z,4.15
2023-05-15T19:57:24.312Z,4.20
2023-05-15T20:00:12.505Z,3.80
2023-05-15T20:02:57.861Z,4.20
2023-05-15T20:05:43.846Z,4.20
2023-05-15T20:08:29.424Z,3.72
2023-05-15T20:11:14.646Z,3.75
2023-05-15T20:14:00.130Z,4.20
2023-05-15T20:16:45.567Z,4.32
2023-05-15T20:19:33.720Z,4.07
2023-05-15T20:22:18.912Z,3.92
2023-05-15T20:25:04.874Z,3.88
2023-05-15T20:27:51.492Z,4.47
2023-05-15T20:30:37.251Z,5.15
2023-05-15T20:33:22.947Z,4.55
2023-05-15T20:36:08.230Z,4.55
2023-05-15T20:38:54.908Z,3.80
2023-05-15T20:41:40.632Z,4.15
2023-05-15T20:44:26.080Z,4.22
2023-05-15T20:47:11.187Z,4.85
2023-05-15T20:49:57.392Z,4.45
2023-05-15T20:52:42.515Z,5.43
2023-05-15T20:55:28.107Z,4.50
2023-05-15T20:58:13.451Z,4.70
2023-05-15T21:01:01.059Z,4.55
2023-05-15T21:03:46.901Z,4.85
2023-05-15T21:06:32.137Z,4.47
2023-05-15T21:09:17.417Z,4.40
2023-05-15T21:12:03.769Z,4.38
2023-05-15T21:14:48.957Z,4.50
2023-05-15T21:17:34.538Z,4.70
2023-05-15T21:20:19.757Z,4.80
2023-05-15T21:23:05.219Z,4.95
2023-05-15T21:25:50.338Z,4.15
2023-05-15T21:28:35.611Z,5.45
2023-05-15T21:31:21.214Z,4.93
2023-05-15T21:34:06.559Z,5.00
2023-05-15T21:36:52.937Z,5.05
2023-05-15T21:39:38.107Z,4.88
2023-05-15T21:42:23.439Z,5.28
2023-05-15T21:45:08.797Z,5.13
2023-05-15T21:47:54.122Z,4.82
2023-05-15T21:50:39.743Z,4.93
2023-05-15T21:53:25.665Z,5.22
2023-05-15T21:56:11.205Z,5.40
2023-05-15T21:58:57.018Z,5.47
2023-05-15T22:01:42.221Z,4.93
2023-05-15T22:04:28.676Z,5.70
2023-05-15T22:07:14.819Z,5.55
2023-05-15T22:10:00.035Z,6.10
2023-05-15T22:12:46.741Z,5.95
2023-05-15T22:15:31.910Z,5.28
2023-05-15T22:18:17.381Z,5.97
2023-05-15T22:21:03.075Z,5.85
2023-05-15T22:23:48.603Z,5.50
2023-05-15T22:26:33.945Z,5.72
2023-05-15T22:29:19.570Z,5.90
2023-05-15T22:32:05.116Z,5.75
2023-05-15T22:34:50.724Z,6.38
2023-05-15T22:37:35.960Z,6.22
2023-05-15T22:40:21.022Z,6.03
2023-05-15T22:43:06.386Z,6.18
2023-05-15T22:45:52.245Z,6.55
2023-05-15T22:48:37.328Z,6.18
2023-05-15T22:51:23.776Z,6.38
2023-05-15T22:54:09.096Z,6.75
2023-05-15T22:56:54.748Z,6.25
2023-05-15T22:59:40.108Z,7.22
2023-05-15T23:02:25.724Z,7.07
2023-05-15T23:05:11.107Z,6.30
2023-05-15T23:07:56.277Z,6.97
2023-05-15T23:10:41.479Z,6.78
2023-05-15T23:13:26.956Z,7.40
2023-05-15T23:16:12.017Z,6.82
2023-05-15T23:19:00.420Z,7.25
2023-05-15T23:21:46.089Z,7.55
2023-05-15T23:24:31.565Z,7.45
2023-05-15T23:27:16.762Z,7.45
2023-05-15T23:30:02.311Z,7.63
2023-05-15T23:32:47.554Z,8.77
2023-05-15T23:35:33.168Z,7.40
2023-05-15T23:38:18.313Z,8.07
2023-05-15T23:41:03.831Z,8.05
2023-05-15T23:43:50.482Z,7.70
2023-05-15T23:46:37.978Z,7.43
2023-05-15T23:49:23.225Z,7.63
2023-05-15T23:52:08.559Z,7.70
2023-05-15T23:54:53.750Z,8.00
2023-05-15T23:57:39.277Z,6.75
